Time;durP1;ratioP1;P1;durP2;ratioP2;P2;SDS_P1;SDS_P2;PMS_P1;PMS_P2;Temp;Humidity;BMP_temperature;BMP_pressure;BME280_temperature;BME280_humidity;BME280_pressure;Samples;Min_cycle;Max_cycle;Signal;HPM_P1;HPM_P2
2023/05/02 00:02:18;;;;;;;;;;;;;;;;;;7368857;19;1293;-65
2023/05/02 00:04:46;;;;;;;;;;;;;;;;;;7366931;19;1827;-65
2023/05/02 00:07:14;;;;;;;;;;;;;;;;;;7367379;19;1797;-64
2023/05/02 00:09:42;;;;;;;;;;;;;;;;;;7369129;19;1807;-65
2023/05/02 00:12:11;;;;;;;;;;;;;;;;;;7368459;19;791;-64
2023/05/02 00:14:39;;;;;;;;;;;;;;;;;;7365770;19;1861;-64
2023/05/02 00:17:07;;;;;;;;;;;;;;;;;;7369070;19;1821;-66
2023/05/02 00:19:35;;;;;;;;;;;;;;;;;;7369011;19;1769;-63
2023/05/02 00:22:03;;;;;;;;;;;;;;;;;;7370929;19;1825;-63
2023/05/02 00:24:32;;;;;;;;;;;;;;;;;;7365529;19;1823;-65
2023/05/02 00:27:00;;;;;;;;;;;;;;;;;;7368124;19;1775;-62
2023/05/02 00:29:28;;;;;;;;;;;;;;;;;;7365333;19;827;-64
2023/05/02 00:31:56;;;;;;;;;;;;;;;;;;7367587;19;802;-62
2023/05/02 00:34:24;;;;;;;;;;;;;;;;;;7364819;19;1274;-63
2023/05/02 00:36:53;;;;;;;;;;;;;;;;;;7365652;19;1844;-63
2023/05/02 00:39:21;;;;;;;;;;;;;;;;;;7366474;19;1820;-64
2023/05/02 00:41:49;;;;;;;;;;;;;;;;;;7367407;19;764;-64
2023/05/02 00:44:17;;;;;;;;;;;;;;;;;;7363251;19;1845;-64
2023/05/02 00:46:45;;;;;;;;;;;;;;;;;;7365659;19;1858;-64
2023/05/02 00:49:14;;;;;;;;;;;;;;;;;;7364615;19;835;-64
2023/05/02 00:51:42;;;;;;;;;;;;;;;;;;7365086;19;815;-64
2023/05/02 00:54:11;;;;;;;;;;;;;;;;;;7364818;19;1262;-64
2023/05/02 00:56:39;;;;;;;;;;;;;;;;;;7367365;19;857;-64
2023/05/02 00:59:07;;;;;;;;;;;;;;;;;;7370330;19;1852;-64
2023/05/02 01:01:36;;;;;;;;;;;;;;;;;;7370571;19;1788;-64
2023/05/02 01:04:04;;;;;;;;;;;;;;;;;;7362813;19;1853;-64
2023/05/02 01:06:32;;;;;;;;;;;;;;;;;;7366219;19;872;-64
2023/05/02 01:09:00;;;;;;;;;;;;;;;;;;7368758;19;1801;-64
2023/05/02 01:11:28;;;;;;;;;;;;;;;;;;7366982;19;826;-64
2023/05/02 01:13:56;;;;;;;;;;;;;;;;;;7363244;19;1389;-64
2023/05/02 01:16:25;;;;;;;;;;;;;;;;;;7365066;19;850;-64
2023/05/02 01:18:53;;;;;;;;;;;;;;;;;;7367305;19;1828;-63
2023/05/02 01:21:21;;;;;;;;;;;;;;;;;;7364341;19;838;-63
2023/05/02 01:23:49;;;;;;;;;;;;;;;;;;7363500;19;1849;-62
2023/05/02 01:26:17;;;;;;;;;;;;;;;;;;7364250;19;875;-63
2023/05/02 01:28:45;;;;;;;;;;;;;;;;;;7368020;19;1829;-63
2023/05/02 01:31:13;;;;;;;;;;;;;;;;;;7363739;19;849;-63
2023/05/02 01:33:42;;;;;;;;;;;;;;;;;;7364096;19;1779;-63
2023/05/02 01:36:10;;;;;;;;;;;;;;;;;;7363922;19;811;-63
2023/05/02 01:38:38;;;;;;;;;;;;;;;;;;7366944;19;1755;-64
2023/05/02 01:41:06;;;;;;;;;;;;;;;;;;7364671;19;750;-65
2023/05/02 01:43:34;;;;;;;;;;;;;;;;;;7363687;19;1880;-65
2023/05/02 01:46:03;;;;;;;;;;;;;;;;;;7365594;19;817;-66
2023/05/02 01:48:31;;;;;;;;;;;;;;;;;;7367086;19;1682;-65
2023/05/02 01:50:59;;;;;;;;;;;;;;;;;;7365648;19;870;-65
2023/05/02 01:53:27;;;;;;;;;;;;;;;;;;7364565;19;1275;-65
2023/05/02 01:55:55;;;;;;;;;;;;;;;;;;7368551;19;1824;-65
2023/05/02 01:58:23;;;;;;;;;;;;;;;;;;7370613;19;1784;-65
2023/05/02 02:00:51;;;;;;;;;;;;;;;;;;7367718;19;803;-64
2023/05/02 02:03:19;;;;;;;;;;;;;;;;;;7372172;19;1846;-66
2023/05/02 02:05:48;;;;;;;;;;;;;;;;;;7369631;19;964;-65
2023/05/02 02:08:16;;;;;;;;;;;;;;;;;;7370472;19;1840;-65
2023/05/02 02:10:44;;;;;;;;;;;;;;;;;;7366349;19;854;-65
2023/05/02 02:13:13;;;;;;;;;;;;;;;;;;7367807;19;1227;-64
2023/05/02 02:15:41;;;;;;;;;;;;;;;;;;7368359;19;806;-64
2023/05/02 02:18:09;;;;;;;;;;;;;;;;;;7368036;19;1849;-65
2023/05/02 02:20:37;;;;;;;;;;;;;;;;;;7367468;19;878;-64
2023/05/02 02:23:05;;;;;;;;;;;;;;;;;;7365417;19;1418;-65
2023/05/02 02:25:33;;;;;;;;;;;;;;;;;;7363831;19;1810;-65
2023/05/02 02:28:02;;;;;;;;;;;;;;;;;;7367058;19;1856;-65
2023/05/02 02:30:30;;;;;;;;;;;;;;;;;;7362434;19;789;-66
2023/05/02 02:32:58;;;;;;;;;;;;;;;;;;7369841;19;1321;-66
2023/05/02 02:35:26;;;;;;;;;;;;;;;;;;7368608;19;1461;-66
2023/05/02 02:37:55;;;;;;;;;;;;;;;;;;7370260;19;1710;-66
2023/05/02 02:40:23;;;;;;;;;;;;;;;;;;7368885;19;852;-66
2023/05/02 02:42:51;;;;;;;;;;;;;;;;;;7368215;19;1286;-66
2023/05/02 02:45:19;;;;;;;;;;;;;;;;;;7367674;19;1864;-66
2023/05/02 02:47:47;;;;;;;;;;;;;;;;;;7371499;19;1858;-66
2023/05/02 02:50:15;;;;;;;;;;;;;;;;;;7368974;19;780;-63
2023/05/02 02:52:43;;;;;;;;;;;;;;;;;;7370096;19;1306;-63
2023/05/02 02:55:11;;;;;;;;;;;;;;;;;;7369456;19;1857;-64
2023/05/02 02:57:40;;;;;;;;;;;;;;;;;;7371375;19;1688;-63
2023/05/02 03:00:08;;;;;;;;;;;;;;;;;;7367840;19;838;-65
2023/05/02 03:02:36;;;;;;;;;;;;;;;;;;7369893;19;1337;-65
2023/05/02 03:05:05;;;;;;;;;;;;;;;;;;7367623;19;1854;-65
2023/05/02 03:07:33;;;;;;;;;;;;;;;;;;7371608;19;1753;-66
2023/05/02 03:10:03;;;;;;;;;;;;;;;;;;7368561;19;871;-66
2023/05/02 03:12:31;;;;;;;;;;;;;;;;;;7368345;19;1265;-65
2023/05/02 03:14:59;;;;;;;;;;;;;;;;;;7369618;19;782;-65
2023/05/02 03:17:27;;;;;;;;;;;;;;;;;;7370893;19;1797;-64
2023/05/02 03:19:56;;;;;;;;;;;;;;;;;;7369533;19;880;-64
2023/05/02 03:22:24;;;;;;;;;;;;;;;;;;7367004;19;1304;-65
2023/05/02 03:24:52;;;;;;;;;;;;;;;;;;7369400;19;1819;-65
2023/05/02 03:27:20;;;;;;;;;;;;;;;;;;7369198;19;2155;-65
2023/05/02 03:29:48;;;;;;;;;;;;;;;;;;7371257;19;1849;-66
2023/05/02 03:32:16;;;;;;;;;;;;;;;;;;7367513;19;1286;-64
2023/05/02 03:34:45;;;;;;;;;;;;;;;;;;7367575;19;772;-65
2023/05/02 03:37:13;;;;;;;;;;;;;;;;;;7367406;19;879;-66
2023/05/02 03:39:41;;;;;;;;;;;;;;;;;;7369212;19;1792;-65
2023/05/02 03:42:09;;;;;;;;;;;;;;;;;;7367102;19;839;-65
2023/05/02 03:44:38;;;;;;;;;;;;;;;;;;7365329;19;1849;-65
2023/05/02 03:47:06;;;;;;;;;;;;;;;;;;7367754;19;807;-65
2023/05/02 03:49:38;;;;;;;;;;;;;;;;;;7369441;19;1835;-66
2023/05/02 03:52:07;;;;;;;;;;;;;;;;;;7367595;19;855;-62
2023/05/02 03:54:37;;;;;;;;;;;;;;;;;;7364704;19;1290;-65
2023/05/02 03:57:06;;;;;;;;;;;;;;;;;;7370405;19;1660;-62
2023/05/02 03:59:40;;;;;;;;;;;;;;;;;;7369218;19;1843;-66
2023/05/02 04:02:14;;;;;;;;;;;;;;;;;;7370213;19;1800;-67
2023/05/02 04:04:47;;;;;;;;;;;;;;;;;;7366712;19;1834;-66
2023/05/02 04:07:18;;;;;;;;;;;;;;;;;;7366741;19;794;-68
2023/05/02 04:09:48;;;;;;;;;;;;;;;;;;7368819;19;1571;-66
2023/05/02 04:12:17;;;;;;;;;;;;;;;;;;7371754;19;2043;-65
2023/05/02 04:14:48;;;;;;;;;;;;;;;;;;7366915;19;799;-65
2023/05/02 04:17:16;;;;;;;;;;;;;;;;;;7366957;19;801;-66
2023/05/02 04:19:49;;;;;;;;;;;;;;;;;;7369744;19;1866;-65
2023/05/02 04:22:18;;;;;;;;;;;;;;;;;;7370864;19;1885;-65
2023/05/02 04:24:51;;;;;;;;;;;;;;;;;;7367066;19;1850;-65
2023/05/02 04:27:19;;;;;;;;;;;;;;;;;;7371423;19;1671;-66
2023/05/02 04:29:48;;;;;;;;;;;;;;;;;;7369360;19;1842;-67
2023/05/02 04:32:17;;;;;;;;;;;;;;;;;;7370307;19;1588;-65
2023/05/02 04:34:45;;;;;;;;;;;;;;;;;;7369426;19;1863;-64
2023/05/02 04:37:14;;;;;;;;;;;;;;;;;;7366599;19;852;-66
2023/05/02 04:39:44;;;;;;;;;;;;;;;;;;7367871;19;1850;-66
2023/05/02 04:42:18;;;;;;;;;;;;;;;;;;7365736;19;1388;-66
2023/05/02 04:44:57;;;;;;;;;;;;;;;;;;7363967;19;1843;-63
2023/05/02 04:47:25;;;;;;;;;;;;;;;;;;7365797;19;792;-64
2023/05/02 04:49:53;;;;;;;;;;;;;;;;;;7368651;19;1534;-65
2023/05/02 04:52:21;;;;;;;;;;;;;;;;;;7365809;19;1314;-65
2023/05/02 04:54:49;;;;;;;;;;;;;;;;;;7369431;19;1819;-64
2023/05/02 04:57:17;;;;;;;;;;;;;;;;;;7365809;19;791;-64
2023/05/02 04:59:49;;;;;;;;;;;;;;;;;;7368623;19;1841;-65
2023/05/02 05:02:17;;;;;;;;;;;;;;;;;;7366480;19;1350;-65
2023/05/02 05:04:47;;;;;;;;;;;;;;;;;;7364166;19;1910;-65
2023/05/02 05:07:15;;;;;;;;;;;;;;;;;;7365778;19;852;-65
2023/05/02 05:09:46;;;;;;;;;;;;;;;;;;7367872;19;1823;-66
2023/05/02 05:12:15;;;;;;;;;;;;;;;;;;7365876;19;690;-66
2023/05/02 05:14:43;;;;;;;;;;;;;;;;;;7366240;19;814;-66
2023/05/02 05:17:11;;;;;;;;;;;;;;;;;;7365641;19;818;-67
2023/05/02 05:19:39;;;;;;;;;;;;;;;;;;7368249;19;1779;-66
2023/05/02 05:22:08;;;;;;;;;;;;;;;;;;7365578;19;817;-66
2023/05/02 05:24:37;;;;;;;;;;;;;;;;;;7362623;19;1873;-65
2023/05/02 05:27:05;;;;;;;;;;;;;;;;;;7365645;19;867;-65
2023/05/02 05:29:34;;;;;;;;;;;;;;;;;;7366742;19;1769;-66
2023/05/02 05:32:02;;;;;;;;;;;;;;;;;;7367163;19;1697;-64
2023/05/02 05:34:30;;;;;;;;;;;;;;;;;;7365690;19;2128;-66
2023/05/02 05:37:00;;;;;;;;;;;;;;;;;;7367997;19;971;-64
2023/05/02 05:39:28;;;;;;;;;;;;;;;;;;7364578;19;849;-66
2023/05/02 05:41:59;;;;;;;;;;;;;;;;;;7364607;19;776;-64
2023/05/02 05:44:28;;;;;;;;;;;;;;;;;;7365556;19;1861;-66
2023/05/02 05:46:56;;;;;;;;;;;;;;;;;;7364341;19;856;-64
2023/05/02 05:49:25;;;;;;;;;;;;;;;;;;7367429;19;1547;-65
2023/05/02 05:51:54;;;;;;;;;;;;;;;;;;7364758;19;867;-65
2023/05/02 05:54:22;;;;;;;;;;;;;;;;;;7365354;19;1770;-66
2023/05/02 05:56:50;;;;;;;;;;;;;;;;;;7363789;19;800;-66
2023/05/02 05:59:20;;;;;;;;;;;;;;;;;;7363062;19;740;-66
2023/05/02 06:01:49;;;;;;;;;;;;;;;;;;7366849;19;1809;-66
2023/05/02 06:04:19;;;;;;;;;;;;;;;;;;7361487;19;1361;-65
2023/05/02 06:06:52;;;;;;;;;;;;;;;;;;7367066;19;1857;-66
2023/05/02 06:09:20;;;;;;;;;;;;;;;;;;7371316;19;774;-66
2023/05/02 06:11:48;;;;;;;;;;;;;;;;;;7370480;19;850;-66
2023/05/02 06:14:17;;;;;;;;;;;;;;;;;;7370583;19;1278;-66
2023/05/02 06:16:47;;;;;;;;;;;;;;;;;;7369754;19;771;-66
2023/05/02 06:19:15;;;;;;;;;;;;;;;;;;7370361;19;865;-67
2023/05/02 06:21:43;;;;;;;;;;;;;;;;;;7370622;19;1721;-66
2023/05/02 06:24:11;;;;;;;;;;;;;;;;;;7371781;19;2123;-66
2023/05/02 06:26:39;;;;;;;;;;;;;;;;;;7368061;19;1853;-65
2023/05/02 06:29:07;;;;;;;;;;;;;;;;;;7370639;19;854;-65
2023/05/02 06:31:35;;;;;;;;;;;;;;;;;;7371612;19;1761;-64
2023/05/02 06:34:03;;;;;;;;;;;;;;;;;;7371805;19;1791;-64
2023/05/02 06:36:32;;;;;;;;;;;;;;;;;;7371186;19;829;-64
2023/05/02 06:39:00;;;;;;;;;;;;;;;;;;7369825;19;878;-63
2023/05/02 06:41:28;;;;;;;;;;;;;;;;;;7371100;19;721;-66
2023/05/02 06:43:56;;;;;;;;;;;;;;;;;;7371448;19;1785;-65
2023/05/02 06:46:24;;;;;;;;;;;;;;;;;;7372554;19;1843;-65
2023/05/02 06:48:53;;;;;;;;;;;;;;;;;;7370167;19;873;-65
2023/05/02 06:51:21;;;;;;;;;;;;;;;;;;7369928;19;842;-65
2023/05/02 06:53:49;;;;;;;;;;;;;;;;;;7370623;19;1815;-67
2023/05/02 06:56:17;;;;;;;;;;;;;;;;;;7370386;19;767;-64
2023/05/02 06:58:45;;;;;;;;;;;;;;;;;;7369729;19;953;-65
2023/05/02 07:01:14;;;;;;;;;;;;;;;;;;7370141;19;907;-66
2023/05/02 07:03:42;;;;;;;;;;;;;;;;;;7370081;19;1683;-66
2023/05/02 07:06:10;;;;;;;;;;;;;;;;;;7368725;19;1849;-66
2023/05/02 07:08:38;;;;;;;;;;;;;;;;;;7369534;19;856;-66
2023/05/02 07:11:06;;;;;;;;;;;;;;;;;;7370262;19;798;-66
2023/05/02 07:13:34;;;;;;;;;;;;;;;;;;7369438;19;1871;-65
2023/05/02 07:16:02;;;;;;;;;;;;;;;;;;7369026;19;810;-65
2023/05/02 07:18:30;;;;;;;;;;;;;;;;;;7368086;19;832;-64
2023/05/02 07:21:00;;;;;;;;;;;;;;;;;;7369362;19;853;-66
2023/05/02 07:23:28;;;;;;;;;;;;;;;;;;7369608;19;1859;-65
2023/05/02 07:25:56;;;;;;;;;;;;;;;;;;7368191;19;1857;-66
2023/05/02 07:28:24;;;;;;;;;;;;;;;;;;7368765;19;794;-65
2023/05/02 07:30:52;;;;;;;;;;;;;;;;;;7369107;19;1781;-66
2023/05/02 07:33:21;;;;;;;;;;;;;;;;;;7368798;19;1674;-65
2023/05/02 07:35:49;;;;;;;;;;;;;;;;;;7369388;19;841;-64
2023/05/02 07:38:17;;;;;;;;;;;;;;;;;;7368634;19;826;-66
2023/05/02 07:40:45;;;;;;;;;;;;;;;;;;7369385;19;891;-65
2023/05/02 07:43:14;;;;;;;;;;;;;;;;;;7368411;19;1953;-63
2023/05/02 07:45:42;;;;;;;;;;;;;;;;;;7368315;19;1858;-65
2023/05/02 07:48:11;;;;;;;;;;;;;;;;;;7368446;19;826;-65
2023/05/02 07:50:39;;;;;;;;;;;;;;;;;;7369083;19;901;-65
2023/05/02 07:53:07;;;;;;;;;;;;;;;;;;7369766;19;1686;-65
2023/05/02 07:55:35;;;;;;;;;;;;;;;;;;7368278;19;790;-65
2023/05/02 07:58:03;;;;;;;;;;;;;;;;;;7368349;19;869;-65
2023/05/02 08:00:31;;;;;;;;;;;;;;;;;;7368666;19;780;-65
2023/05/02 08:03:00;;;;;;;;;;;;;;;;;;7368260;19;1570;-65
2023/05/02 08:05:28;;;;;;;;;;;;;;;;;;7367953;19;1830;-65
2023/05/02 08:07:56;;;;;;;;;;;;;;;;;;7372533;19;2135;-63
2023/05/02 08:10:25;;;;;;;;;;;;;;;;;;7367665;19;854;-63
2023/05/02 08:12:53;;;;;;;;;;;;;;;;;;7370847;19;1495;-64
2023/05/02 08:15:21;;;;;;;;;;;;;;;;;;7374205;19;1388;-64
2023/05/02 08:17:49;;;;;;;;;;;;;;;;;;7370751;19;1765;-58
2023/05/02 08:20:17;;;;;;;;;;;;;;;;;;7372464;19;1828;-60
2023/05/02 08:22:46;;;;;;;;;;;;;;;;;;7369845;19;1224;-61
2023/05/02 08:25:14;;;;;;;;;;;;;;;;;;7369730;19;1852;-56
2023/05/02 08:27:42;;;;;;;;;;;;;;;;;;7369232;19;826;-58
2023/05/02 08:30:10;;;;;;;;;;;;;;;;;;7370553;19;1663;-59
2023/05/02 08:32:38;;;;;;;;;;;;;;;;;;7369256;19;1302;-58
2023/05/02 08:35:06;;;;;;;;;;;;;;;;;;7371488;19;946;-59
2023/05/02 08:37:35;;;;;;;;;;;;;;;;;;7369996;19;1710;-57
2023/05/02 08:40:03;;;;;;;;;;;;;;;;;;7372318;19;2032;-65
2023/05/02 08:42:32;;;;;;;;;;;;;;;;;;7370562;19;1806;-62
2023/05/02 08:45:00;;;;;;;;;;;;;;;;;;7368058;19;869;-63
2023/05/02 08:47:28;;;;;;;;;;;;;;;;;;7367982;19;1830;-62
2023/05/02 08:49:56;;;;;;;;;;;;;;;;;;7367644;19;817;-63
2023/05/02 08:52:24;;;;;;;;;;;;;;;;;;7367399;19;1317;-64
2023/05/02 08:54:52;;;;;;;;;;;;;;;;;;7371563;19;2020;-62
2023/05/02 08:57:21;;;;;;;;;;;;;;;;;;7367544;19;812;-60
2023/05/02 08:59:49;;;;;;;;;;;;;;;;;;7369337;19;1780;-63
2023/05/02 09:02:17;;;;;;;;;;;;;;;;;;7366671;19;862;-61
2023/05/02 09:04:45;;;;;;;;;;;;;;;;;;7367206;19;806;-61
2023/05/02 09:07:14;;;;;;;;;;;;;;;;;;7368048;19;1965;-62
2023/05/02 09:09:42;;;;;;;;;;;;;;;;;;7366057;19;992;-65
2023/05/02 09:12:10;;;;;;;;;;;;;;;;;;7366841;19;713;-64
2023/05/02 09:14:38;;;;;;;;;;;;;;;;;;7365444;19;1607;-64
2023/05/02 09:17:09;;;;;;;;;;;;;;;;;;7363773;19;1134;-61
2023/05/02 09:19:37;;;;;;;;;;;;;;;;;;7364891;19;865;-63
2023/05/02 09:22:05;;;;;;;;;;;;;;;;;;7366124;19;775;-63
2023/05/02 09:24:33;;;;;;;;;;;;;;;;;;7364130;19;1384;-59
2023/05/02 09:27:02;;;;;;;;;;;;;;;;;;7363866;19;1864;-62
2023/05/02 09:29:34;;;;;;;;;;;;;;;;;;7366642;19;2086;-59
2023/05/02 09:32:02;;;;;;;;;;;;;;;;;;7370690;19;1863;-60
2023/05/02 09:34:30;;;;;;;;;;;;;;;;;;7363311;19;1403;-62
2023/05/02 09:36:59;;;;;;;;;;;;;;;;;;7365909;19;767;-63
2023/05/02 09:39:27;;;;;;;;;;;;;;;;;;7366358;19;2043;-66
2023/05/02 09:41:56;;;;;;;;;;;;;;;;;;7367666;19;1752;-62
2023/05/02 09:44:24;;;;;;;;;;;;;;;;;;7363363;19;1342;-61
2023/05/02 09:46:52;;;;;;;;;;;;;;;;;;7364118;19;1833;-61
2023/05/02 09:49:20;;;;;;;;;;;;;;;;;;7365864;19;1795;-61
2023/05/02 09:51:48;;;;;;;;;;;;;;;;;;7365693;19;806;-59
2023/05/02 09:54:16;;;;;;;;;;;;;;;;;;7363020;19;1238;-61
2023/05/02 09:56:44;;;;;;;;;;;;;;;;;;7365246;19;794;-61
2023/05/02 09:59:13;;;;;;;;;;;;;;;;;;7364682;19;1721;-62
2023/05/02 10:01:41;;;;;;;;;;;;;;;;;;7364442;19;834;-59
2023/05/02 10:04:09;;;;;;;;;;;;;;;;;;7363790;19;1340;-55
2023/05/02 10:06:37;;;;;;;;;;;;;;;;;;7367259;19;2032;-58
2023/05/02 10:09:05;;;;;;;;;;;;;;;;;;7365071;19;1780;-64
2023/05/02 10:11:33;;;;;;;;;;;;;;;;;;7365388;19;826;-62
2023/05/02 10:14:02;;;;;;;;;;;;;;;;;;7362880;19;1316;-61
2023/05/02 10:16:30;;;;;;;;;;;;;;;;;;7364751;19;831;-64
2023/05/02 10:18:58;;;;;;;;;;;;;;;;;;7363768;19;1792;-60
2023/05/02 10:21:26;;;;;;;;;;;;;;;;;;7363827;19;834;-58
2023/05/02 10:23:54;;;;;;;;;;;;;;;;;;7364263;19;2052;-61
2023/05/02 10:26:23;;;;;;;;;;;;;;;;;;7364109;19;1930;-59
2023/05/02 10:28:51;;;;;;;;;;;;;;;;;;7362866;19;838;-63
2023/05/02 10:31:20;;;;;;;;;;;;;;;;;;7363759;19;774;-65
2023/05/02 10:33:48;;;;;;;;;;;;;;;;;;7362822;19;1772;-66
2023/05/02 10:36:16;;;;;;;;;;;;;;;;;;7363736;19;824;-64
2023/05/02 10:38:44;;;;;;;;;;;;;;;;;;7362416;19;806;-65
2023/05/02 10:41:12;;;;;;;;;;;;;;;;;;7363993;19;814;-67
2023/05/02 10:43:41;;;;;;;;;;;;;;;;;;7362718;19;1846;-63
2023/05/02 10:46:09;;;;;;;;;;;;;;;;;;7363880;19;1857;-63
2023/05/02 10:48:37;;;;;;;;;;;;;;;;;;7362675;19;813;-62
2023/05/02 10:51:05;;;;;;;;;;;;;;;;;;7363636;19;877;-61
2023/05/02 10:53:35;;;;;;;;;;;;;;;;;;7367755;19;1721;-63
2023/05/02 10:56:03;;;;;;;;;;;;;;;;;;7369852;19;942;-61
2023/05/02 10:58:31;;;;;;;;;;;;;;;;;;7368812;19;1795;-62
2023/05/02 11:00:59;;;;;;;;;;;;;;;;;;7374113;19;1778;-62
2023/05/02 11:03:28;;;;;;;;;;;;;;;;;;7371230;19;1364;-60
2023/05/02 11:05:56;;;;;;;;;;;;;;;;;;7370488;19;901;-62
2023/05/02 11:08:24;;;;;;;;;;;;;;;;;;7366419;19;1842;-63
2023/05/02 11:10:52;;;;;;;;;;;;;;;;;;7370748;19;862;-62
2023/05/02 11:13:20;;;;;;;;;;;;;;;;;;7368901;19;1380;-63
2023/05/02 11:15:48;;;;;;;;;;;;;;;;;;7370792;19;944;-62
2023/05/02 11:18:16;;;;;;;;;;;;;;;;;;7369996;19;845;-62
2023/05/02 11:20:45;;;;;;;;;;;;;;;;;;7369911;19;820;-61
2023/05/02 11:23:13;;;;;;;;;;;;;;;;;;7367589;19;1381;-62
2023/05/02 11:25:42;;;;;;;;;;;;;;;;;;7369657;19;794;-63
2023/05/02 11:28:10;;;;;;;;;;;;;;;;;;7367132;19;1845;-63
2023/05/02 11:30:38;;;;;;;;;;;;;;;;;;7369548;19;782;-62
2023/05/02 11:33:07;;;;;;;;;;;;;;;;;;7368191;19;1278;-63
2023/05/02 11:35:35;;;;;;;;;;;;;;;;;;7369406;19;870;-62
2023/05/02 11:38:03;;;;;;;;;;;;;;;;;;7366243;19;867;-61
2023/05/02 11:40:31;;;;;;;;;;;;;;;;;;7369049;19;747;-60
2023/05/02 11:43:00;;;;;;;;;;;;;;;;;;7368336;19;1306;-61
2023/05/02 11:45:28;;;;;;;;;;;;;;;;;;7368803;19;808;-62
2023/05/02 11:47:56;;;;;;;;;;;;;;;;;;7365790;19;1834;-62
2023/05/02 11:50:24;;;;;;;;;;;;;;;;;;7369101;19;774;-62
2023/05/02 11:52:53;;;;;;;;;;;;;;;;;;7368056;19;1282;-63
2023/05/02 11:55:21;;;;;;;;;;;;;;;;;;7368453;19;843;-63
2023/05/02 11:57:49;;;;;;;;;;;;;;;;;;7367397;19;814;-62
2023/05/02 12:00:17;;;;;;;;;;;;;;;;;;7368191;19;816;-62
2023/05/02 12:02:45;;;;;;;;;;;;;;;;;;7366523;19;1225;-62
2023/05/02 12:05:13;;;;;;;;;;;;;;;;;;7365361;19;815;-59
2023/05/02 12:07:42;;;;;;;;;;;;;;;;;;7364137;19;1868;-61
2023/05/02 12:10:10;;;;;;;;;;;;;;;;;;7368290;19;846;-62
2023/05/02 12:12:39;;;;;;;;;;;;;;;;;;7367676;19;1326;-62
2023/05/02 12:15:07;;;;;;;;;;;;;;;;;;7367765;19;792;-62
2023/05/02 12:17:35;;;;;;;;;;;;;;;;;;7367966;19;822;-61
2023/05/02 12:20:04;;;;;;;;;;;;;;;;;;7367025;19;834;-63
2023/05/02 12:22:32;;;;;;;;;;;;;;;;;;7366785;19;1324;-58
2023/05/02 12:25:00;;;;;;;;;;;;;;;;;;7367119;19;811;-62
2023/05/02 12:27:28;;;;;;;;;;;;;;;;;;7366499;19;1845;-59
2023/05/02 12:29:57;;;;;;;;;;;;;;;;;;7366933;19;825;-59
2023/05/02 12:32:25;;;;;;;;;;;;;;;;;;7367483;19;1278;-57
2023/05/02 12:34:53;;;;;;;;;;;;;;;;;;7366224;19;820;-63
2023/05/02 12:37:21;;;;;;;;;;;;;;;;;;7367449;19;812;-62
2023/05/02 12:39:50;;;;;;;;;;;;;;;;;;7366282;19;853;-60
2023/05/02 12:42:18;;;;;;;;;;;;;;;;;;7366400;19;822;-63
2023/05/02 12:44:46;;;;;;;;;;;;;;;;;;7364228;19;810;-61
2023/05/02 12:47:14;;;;;;;;;;;;;;;;;;7366239;19;1829;-62
2023/05/02 12:49:42;;;;;;;;;;;;;;;;;;7366162;19;803;-62
2023/05/02 12:52:10;;;;;;;;;;;;;;;;;;7366686;19;774;-62
2023/05/02 12:54:38;;;;;;;;;;;;;;;;;;7363910;19;1303;-61
2023/05/02 12:57:07;;;;;;;;;;;;;;;;;;7366279;19;771;-60
2023/05/02 12:59:35;;;;;;;;;;;;;;;;;;7366123;19;873;-61
2023/05/02 13:02:03;;;;;;;;;;;;;;;;;;7367259;19;771;-62
2023/05/02 13:04:31;;;;;;;;;;;;;;;;;;7363587;19;1286;-60
2023/05/02 13:06:59;;;;;;;;;;;;;;;;;;7365518;19;1842;-60
2023/05/02 13:09:28;;;;;;;;;;;;;;;;;;7365948;19;767;-64
2023/05/02 13:11:57;;;;;;;;;;;;;;;;;;7366959;19;849;-61
2023/05/02 13:14:25;;;;;;;;;;;;;;;;;;7363196;19;1238;-62
2023/05/02 13:16:54;;;;;;;;;;;;;;;;;;7367142;19;1774;-62
2023/05/02 13:19:22;;;;;;;;;;;;;;;;;;7367430;19;1722;-62
2023/05/02 13:21:51;;;;;;;;;;;;;;;;;;7363668;19;803;-63
2023/05/02 13:24:19;;;;;;;;;;;;;;;;;;7361823;19;1266;-60
2023/05/02 13:26:47;;;;;;;;;;;;;;;;;;7366083;19;1841;-64
2023/05/02 13:29:15;;;;;;;;;;;;;;;;;;7365087;19;868;-63
2023/05/02 13:31:43;;;;;;;;;;;;;;;;;;7366216;19;842;-64
2023/05/02 13:34:11;;;;;;;;;;;;;;;;;;7362750;19;1246;-65
2023/05/02 13:36:44;;;;;;;;;;;;;;;;;;7366227;19;811;-63
2023/05/02 13:39:12;;;;;;;;;;;;;;;;;;7367839;19;1096;-61
2023/05/02 13:41:41;;;;;;;;;;;;;;;;;;7365742;19;968;-64
2023/05/02 13:44:09;;;;;;;;;;;;;;;;;;7363248;19;1340;-60
2023/05/02 13:46:37;;;;;;;;;;;;;;;;;;7365187;19;869;-61
2023/05/02 13:49:05;;;;;;;;;;;;;;;;;;7362091;19;1853;-62
2023/05/02 13:51:33;;;;;;;;;;;;;;;;;;7366233;19;775;-60
2023/05/02 13:54:02;;;;;;;;;;;;;;;;;;7363217;19;1238;-64
2023/05/02 13:56:30;;;;;;;;;;;;;;;;;;7364710;19;889;-63
2023/05/02 13:58:58;;;;;;;;;;;;;;;;;;7364799;19;877;-64
2023/05/02 14:01:27;;;;;;;;;;;;;;;;;;7367396;19;1796;-63
2023/05/02 14:03:55;;;;;;;;;;;;;;;;;;7364879;19;1563;-61
2023/05/02 14:06:23;;;;;;;;;;;;;;;;;;7367760;19;1765;-59
2023/05/02 14:08:52;;;;;;;;;;;;;;;;;;7362696;19;1909;-60
2023/05/02 14:11:20;;;;;;;;;;;;;;;;;;7364614;19;2073;-64
2023/05/02 14:13:49;;;;;;;;;;;;;;;;;;7366374;19;1579;-63
2023/05/02 14:16:17;;;;;;;;;;;;;;;;;;7364514;19;865;-61
2023/05/02 14:18:45;;;;;;;;;;;;;;;;;;7365415;19;1800;-60
2023/05/02 14:21:14;;;;;;;;;;;;;;;;;;7364196;19;890;-58
2023/05/02 14:23:42;;;;;;;;;;;;;;;;;;7362868;19;1356;-61
2023/05/02 14:26:11;;;;;;;;;;;;;;;;;;7364046;19;802;-60
2023/05/02 14:28:40;;;;;;;;;;;;;;;;;;7368709;19;1852;-61
2023/05/02 14:31:08;;;;;;;;;;;;;;;;;;7374465;19;1687;-63
2023/05/02 14:33:36;;;;;;;;;;;;;;;;;;7369823;19;1345;-62
2023/05/02 14:36:04;;;;;;;;;;;;;;;;;;7370490;19;803;-60
2023/05/02 14:38:32;;;;;;;;;;;;;;;;;;7369764;19;1656;-59
2023/05/02 14:41:01;;;;;;;;;;;;;;;;;;7373851;19;1836;-59
2023/05/02 14:43:29;;;;;;;;;;;;;;;;;;7369130;19;1274;-63
2023/05/02 14:45:58;;;;;;;;;;;;;;;;;;7370843;19;818;-62
2023/05/02 14:48:26;;;;;;;;;;;;;;;;;;7368504;19;1857;-62
2023/05/02 14:50:55;;;;;;;;;;;;;;;;;;7370766;19;903;-61
2023/05/02 14:53:23;;;;;;;;;;;;;;;;;;7369722;19;1333;-63
2023/05/02 14:55:51;;;;;;;;;;;;;;;;;;7371315;19;1831;-59
2023/05/02 14:58:20;;;;;;;;;;;;;;;;;;7368722;19;2051;-62
2023/05/02 15:00:48;;;;;;;;;;;;;;;;;;7374055;19;2146;-64
2023/05/02 15:03:16;;;;;;;;;;;;;;;;;;7368166;19;1333;-63
2023/05/02 15:05:44;;;;;;;;;;;;;;;;;;7369457;19;953;-64
2023/05/02 15:08:12;;;;;;;;;;;;;;;;;;7368792;19;1863;-63
2023/05/02 15:10:40;;;;;;;;;;;;;;;;;;7370142;19;870;-63
2023/05/02 15:13:08;;;;;;;;;;;;;;;;;;7368364;19;1348;-63
2023/05/02 15:15:36;;;;;;;;;;;;;;;;;;7367855;19;793;-61
2023/05/02 15:18:05;;;;;;;;;;;;;;;;;;7368800;19;1719;-60
2023/05/02 15:20:33;;;;;;;;;;;;;;;;;;7368985;19;810;-62
2023/05/02 15:23:02;;;;;;;;;;;;;;;;;;7368636;19;1373;-63
2023/05/02 15:25:30;;;;;;;;;;;;;;;;;;7369366;19;902;-63
2023/05/02 15:27:58;;;;;;;;;;;;;;;;;;7367581;19;1849;-62
2023/05/02 15:30:26;;;;;;;;;;;;;;;;;;7370010;19;881;-62
2023/05/02 15:32:54;;;;;;;;;;;;;;;;;;7367962;19;1329;-64
2023/05/02 15:35:22;;;;;;;;;;;;;;;;;;7368846;19;833;-63
2023/05/02 15:37:51;;;;;;;;;;;;;;;;;;7367785;19;825;-66
2023/05/02 15:40:19;;;;;;;;;;;;;;;;;;7372935;19;1299;-63
2023/05/02 15:42:47;;;;;;;;;;;;;;;;;;7371186;19;1812;-61
2023/05/02 15:45:15;;;;;;;;;;;;;;;;;;7371404;19;1782;-62
2023/05/02 15:47:44;;;;;;;;;;;;;;;;;;7367483;19;1842;-62
2023/05/02 15:50:12;;;;;;;;;;;;;;;;;;7368921;19;767;-61
2023/05/02 15:52:40;;;;;;;;;;;;;;;;;;7366758;19;1287;-62
2023/05/02 15:55:08;;;;;;;;;;;;;;;;;;7369475;19;866;-63
2023/05/02 15:57:36;;;;;;;;;;;;;;;;;;7370467;19;1745;-69
2023/05/02 16:00:05;;;;;;;;;;;;;;;;;;7371987;19;1553;-59
2023/05/02 16:02:34;;;;;;;;;;;;;;;;;;7369174;19;1329;-59
2023/05/02 16:05:02;;;;;;;;;;;;;;;;;;7369622;19;1863;-60
2023/05/02 16:07:30;;;;;;;;;;;;;;;;;;7368771;19;1849;-55
2023/05/02 16:09:58;;;;;;;;;;;;;;;;;;7371762;19;1753;-57
2023/05/02 16:12:28;;;;;;;;;;;;;;;;;;7369723;19;1310;-61
2023/05/02 16:14:56;;;;;;;;;;;;;;;;;;7368426;19;830;-63
2023/05/02 16:17:24;;;;;;;;;;;;;;;;;;7368731;19;815;-58
2023/05/02 16:19:52;;;;;;;;;;;;;;;;;;7372217;19;1778;-62
2023/05/02 16:22:20;;;;;;;;;;;;;;;;;;7368462;19;819;-62
2023/05/02 16:24:48;;;;;;;;;;;;;;;;;;7368230;19;843;-64
2023/05/02 16:27:17;;;;;;;;;;;;;;;;;;7367381;19;966;-63
2023/05/02 16:29:45;;;;;;;;;;;;;;;;;;7368596;19;1864;-63
2023/05/02 16:32:13;;;;;;;;;;;;;;;;;;7372124;19;1626;-58
2023/05/02 16:34:41;;;;;;;;;;;;;;;;;;7365073;19;1270;-61
2023/05/02 16:37:10;;;;;;;;;;;;;;;;;;7367390;19;750;-63
2023/05/02 16:39:38;;;;;;;;;;;;;;;;;;7370104;19;2256;-63
2023/05/02 16:42:06;;;;;;;;;;;;;;;;;;7367985;19;830;-64
2023/05/02 16:44:35;;;;;;;;;;;;;;;;;;7367611;19;1839;-64
2023/05/02 16:47:03;;;;;;;;;;;;;;;;;;7370553;19;1824;-63
2023/05/02 16:49:31;;;;;;;;;;;;;;;;;;7366799;19;1853;-63
2023/05/02 16:51:59;;;;;;;;;;;;;;;;;;7367685;19;862;-64
2023/05/02 16:54:27;;;;;;;;;;;;;;;;;;7365015;19;1351;-64
2023/05/02 16:56:55;;;;;;;;;;;;;;;;;;7371522;19;1544;-64
2023/05/02 16:59:23;;;;;;;;;;;;;;;;;;7369840;19;1906;-64
2023/05/02 17:01:52;;;;;;;;;;;;;;;;;;7367190;19;842;-62
2023/05/02 17:04:20;;;;;;;;;;;;;;;;;;7364638;19;1313;-63
2023/05/02 17:06:48;;;;;;;;;;;;;;;;;;7369196;19;1420;-63
2023/05/02 17:09:17;;;;;;;;;;;;;;;;;;7364412;19;1844;-62
2023/05/02 17:11:45;;;;;;;;;;;;;;;;;;7366280;19;877;-65
2023/05/02 17:14:14;;;;;;;;;;;;;;;;;;7364934;19;1227;-65
2023/05/02 17:16:42;;;;;;;;;;;;;;;;;;7369953;19;1807;-60
2023/05/02 17:19:10;;;;;;;;;;;;;;;;;;7365968;19;823;-63